sensor_id;sensor_type;location;lat;lon;timestamp;P1;durP1;ratioP1;P2;durP2;ratioP2
18443;SDS011;9350;53.176;8.194;2023-04-01T00:02:24;13.07;;;10.05;;
18443;SDS011;9350;53.176;8.194;2023-04-01T00:04:51;14.48;;;10.10;;
18443;SDS011;9350;53.176;8.194;2023-04-01T00:07:18;15.30;;;10.25;;
18443;SDS011;9350;53.176;8.194;2023-04-01T00:09:46;15.00;;;9.88;;
18443;SDS011;9350;53.176;8.194;2023-04-01T00:12:13;13.93;;;10.52;;
18443;SDS011;9350;53.176;8.194;2023-04-01T00:14:40;13.93;;;10.30;;
18443;SDS011;9350;53.176;8.194;2023-04-01T00:17:06;12.63;;;10.35;;
18443;SDS011;9350;53.176;8.194;2023-04-01T00:19:33;14.38;;;10.48;;
18443;SDS011;9350;53.176;8.194;2023-04-01T00:22:00;14.27;;;11.13;;
18443;SDS011;9350;53.176;8.194;2023-04-01T00:24:27;17.73;;;11.73;;
18443;SDS011;9350;53.176;8.194;2023-04-01T00:26:55;22.00;;;11.00;;
18443;SDS011;9350;53.176;8.194;2023-04-01T00:29:22;17.30;;;10.77;;
18443;SDS011;9350;53.176;8.194;2023-04-01T00:31:54;17.23;;;11.23;;
18443;SDS011;9350;53.176;8.194;2023-04-01T00:34:21;15.93;;;11.20;;
18443;SDS011;9350;53.176;8.194;2023-04-01T00:36:48;19.55;;;11.40;;
18443;SDS011;9350;53.176;8.194;2023-04-01T00:39:15;17.67;;;12.00;;
18443;SDS011;9350;53.176;8.194;2023-04-01T00:41:42;16.48;;;11.50;;
18443;SDS011;9350;53.176;8.194;2023-04-01T00:44:15;15.95;;;12.27;;
18443;SDS011;9350;53.176;8.194;2023-04-01T00:46:44;23.73;;;12.27;;
18443;SDS011;9350;53.176;8.194;2023-04-01T00:49:11;18.30;;;12.25;;
18443;SDS011;9350;53.176;8.194;2023-04-01T00:51:39;17.58;;;12.38;;
18443;SDS011;9350;53.176;8.194;2023-04-01T00:54:07;16.60;;;11.88;;
18443;SDS011;9350;53.176;8.194;2023-04-01T00:56:36;17.45;;;12.75;;
18443;SDS011;9350;53.176;8.194;2023-04-01T00:59:06;19.77;;;12.88;;
18443;SDS011;9350;53.176;8.194;2023-04-01T01:01:37;18.77;;;12.85;;
18443;SDS011;9350;53.176;8.194;2023-04-01T01:04:04;20.38;;;13.38;;
18443;SDS011;9350;53.176;8.194;2023-04-01T01:06:35;18.13;;;12.90;;
18443;SDS011;9350;53.176;8.194;2023-04-01T01:09:19;19.35;;;12.23;;
18443;SDS011;9350;53.176;8.194;2023-04-01T01:11:54;21.05;;;14.00;;
18443;SDS011;9350;53.176;8.194;2023-04-01T01:14:30;22.05;;;13.27;;
18443;SDS011;9350;53.176;8.194;2023-04-01T01:17:09;19.55;;;13.95;;
18443;SDS011;9350;53.176;8.194;2023-04-01T01:19:54;20.15;;;14.07;;
18443;SDS011;9350;53.176;8.194;2023-04-01T01:22:51;20.73;;;14.00;;
18443;SDS011;9350;53.176;8.194;2023-04-01T01:25:32;18.00;;;13.20;;
18443;SDS011;9350;53.176;8.194;2023-04-01T01:28:11;20.13;;;13.43;;
18443;SDS011;9350;53.176;8.194;2023-04-01T01:30:52;17.30;;;13.25;;
18443;SDS011;9350;53.176;8.194;2023-04-01T01:33:49;20.02;;;14.13;;
18443;SDS011;9350;53.176;8.194;2023-04-01T01:36:25;17.63;;;12.75;;
18443;SDS011;9350;53.176;8.194;2023-04-01T01:38:56;16.80;;;12.45;;
18443;SDS011;9350;53.176;8.194;2023-04-01T01:41:23;15.48;;;11.65;;
18443;SDS011;9350;53.176;8.194;2023-04-01T01:43:52;16.23;;;11.63;;
18443;SDS011;9350;53.176;8.194;2023-04-01T01:46:22;16.40;;;11.50;;
18443;SDS011;9350;53.176;8.194;2023-04-01T01:48:51;18.50;;;11.90;;
18443;SDS011;9350;53.176;8.194;2023-04-01T01:51:19;18.10;;;12.48;;
18443;SDS011;9350;53.176;8.194;2023-04-01T01:53:49;15.82;;;10.88;;
18443;SDS011;9350;53.176;8.194;2023-04-01T01:56:16;18.83;;;11.77;;
18443;SDS011;9350;53.176;8.194;2023-04-01T01:58:47;17.45;;;12.05;;
18443;SDS011;9350;53.176;8.194;2023-04-01T02:01:17;17.90;;;12.02;;
18443;SDS011;9350;53.176;8.194;2023-04-01T02:03:47;17.67;;;11.90;;
18443;SDS011;9350;53.176;8.194;2023-04-01T02:06:15;16.55;;;12.52;;
18443;SDS011;9350;53.176;8.194;2023-04-01T02:08:45;18.60;;;12.07;;
18443;SDS011;9350;53.176;8.194;2023-04-01T02:11:18;18.38;;;12.13;;
18443;SDS011;9350;53.176;8.194;2023-04-01T02:13:49;18.77;;;12.73;;
18443;SDS011;9350;53.176;8.194;2023-04-01T02:16:21;21.50;;;13.23;;
18443;SDS011;9350;53.176;8.194;2023-04-01T02:18:54;19.38;;;12.50;;
18443;SDS011;9350;53.176;8.194;2023-04-01T02:21:24;18.00;;;12.48;;
18443;SDS011;9350;53.176;8.194;2023-04-01T02:23:55;19.85;;;12.68;;
18443;SDS011;9350;53.176;8.194;2023-04-01T02:26:25;17.08;;;12.43;;
18443;SDS011;9350;53.176;8.194;2023-04-01T02:28:52;22.92;;;12.20;;
18443;SDS011;9350;53.176;8.194;2023-04-01T02:31:20;17.38;;;12.98;;
18443;SDS011;9350;53.176;8.194;2023-04-01T02:33:48;20.25;;;12.77;;
18443;SDS011;9350;53.176;8.194;2023-04-01T02:36:15;16.10;;;12.02;;
18443;SDS011;9350;53.176;8.194;2023-04-01T02:38:43;16.73;;;12.00;;
18443;SDS011;9350;53.176;8.194;2023-04-01T02:41:11;20.90;;;13.82;;
18443;SDS011;9350;53.176;8.194;2023-04-01T02:43:39;22.05;;;13.13;;
18443;SDS011;9350;53.176;8.194;2023-04-01T02:46:06;19.20;;;12.73;;
18443;SDS011;9350;53.176;8.194;2023-04-01T02:48:33;18.05;;;12.57;;
18443;SDS011;9350;53.176;8.194;2023-04-01T02:51:00;20.83;;;12.57;;
18443;SDS011;9350;53.176;8.194;2023-04-01T02:53:27;17.60;;;12.27;;
18443;SDS011;9350;53.176;8.194;2023-04-01T02:55:54;19.05;;;12.57;;
18443;SDS011;9350;53.176;8.194;2023-04-01T02:58:21;21.52;;;13.30;;
18443;SDS011;9350;53.176;8.194;2023-04-01T03:00:49;19.17;;;12.73;;
18443;SDS011;9350;53.176;8.194;2023-04-01T03:03:16;18.00;;;12.07;;
18443;SDS011;9350;53.176;8.194;2023-04-01T03:05:43;18.73;;;13.38;;
18443;SDS011;9350;53.176;8.194;2023-04-01T03:08:10;19.65;;;12.70;;
18443;SDS011;9350;53.176;8.194;2023-04-01T03:10:36;20.52;;;13.48;;
18443;SDS011;9350;53.176;8.194;2023-04-01T03:13:03;20.25;;;12.93;;
18443;SDS011;9350;53.176;8.194;2023-04-01T03:15:31;19.95;;;13.35;;
18443;SDS011;9350;53.176;8.194;2023-04-01T03:17:59;18.40;;;12.77;;
18443;SDS011;9350;53.176;8.194;2023-04-01T03:20:25;20.83;;;12.93;;
18443;SDS011;9350;53.176;8.194;2023-04-01T03:22:52;21.02;;;13.60;;
18443;SDS011;9350;53.176;8.194;2023-04-01T03:25:19;19.92;;;13.20;;
18443;SDS011;9350;53.176;8.194;2023-04-01T03:27:46;20.65;;;13.68;;
18443;SDS011;9350;53.176;8.194;2023-04-01T03:30:13;19.05;;;12.57;;
18443;SDS011;9350;53.176;8.194;2023-04-01T03:32:39;22.38;;;13.40;;
18443;SDS011;9350;53.176;8.194;2023-04-01T03:35:08;17.92;;;12.38;;
18443;SDS011;9350;53.176;8.194;2023-04-01T03:37:35;23.73;;;13.40;;
18443;SDS011;9350;53.176;8.194;2023-04-01T03:40:03;19.13;;;12.43;;
18443;SDS011;9350;53.176;8.194;2023-04-01T03:42:30;19.90;;;12.75;;
18443;SDS011;9350;53.176;8.194;2023-04-01T03:44:57;17.67;;;13.00;;
18443;SDS011;9350;53.176;8.194;2023-04-01T03:47:24;20.00;;;12.98;;
18443;SDS011;9350;53.176;8.194;2023-04-01T03:49:51;18.13;;;12.55;;
18443;SDS011;9350;53.176;8.194;2023-04-01T03:52:19;22.35;;;13.60;;
18443;SDS011;9350;53.176;8.194;2023-04-01T03:54:46;19.42;;;13.02;;
18443;SDS011;9350;53.176;8.194;2023-04-01T03:57:12;20.27;;;13.82;;
18443;SDS011;9350;53.176;8.194;2023-04-01T03:59:39;21.25;;;12.07;;
18443;SDS011;9350;53.176;8.194;2023-04-01T04:02:06;20.48;;;12.88;;
18443;SDS011;9350;53.176;8.194;2023-04-01T04:04:32;17.63;;;13.02;;
18443;SDS011;9350;53.176;8.194;2023-04-01T04:07:00;18.05;;;12.50;;
18443;SDS011;9350;53.176;8.194;2023-04-01T04:09:29;17.55;;;13.15;;
18443;SDS011;9350;53.176;8.194;2023-04-01T04:11:56;18.50;;;12.65;;
18443;SDS011;9350;53.176;8.194;2023-04-01T04:14:23;18.70;;;13.07;;
18443;SDS011;9350;53.176;8.194;2023-04-01T04:16:50;18.95;;;12.48;;
18443;SDS011;9350;53.176;8.194;2023-04-01T04:19:17;19.63;;;12.75;;
18443;SDS011;9350;53.176;8.194;2023-04-01T04:21:44;18.85;;;12.55;;
18443;SDS011;9350;53.176;8.194;2023-04-01T04:24:10;20.05;;;13.63;;
18443;SDS011;9350;53.176;8.194;2023-04-01T04:26:38;19.92;;;12.80;;
18443;SDS011;9350;53.176;8.194;2023-04-01T04:29:05;20.10;;;13.10;;
18443;SDS011;9350;53.176;8.194;2023-04-01T04:31:32;20.95;;;13.07;;
18443;SDS011;9350;53.176;8.194;2023-04-01T04:33:59;18.98;;;12.98;;
18443;SDS011;9350;53.176;8.194;2023-04-01T04:36:26;19.42;;;12.18;;
18443;SDS011;9350;53.176;8.194;2023-04-01T04:38:53;18.35;;;12.63;;
18443;SDS011;9350;53.176;8.194;2023-04-01T04:41:20;17.92;;;12.05;;
18443;SDS011;9350;53.176;8.194;2023-04-01T04:43:52;19.85;;;12.43;;
18443;SDS011;9350;53.176;8.194;2023-04-01T04:46:21;15.88;;;11.30;;
18443;SDS011;9350;53.176;8.194;2023-04-01T04:48:48;19.20;;;12.07;;
18443;SDS011;9350;53.176;8.194;2023-04-01T04:51:15;19.88;;;11.50;;
18443;SDS011;9350;53.176;8.194;2023-04-01T04:53:43;18.65;;;11.98;;
18443;SDS011;9350;53.176;8.194;2023-04-01T04:56:10;16.45;;;11.18;;
18443;SDS011;9350;53.176;8.194;2023-04-01T04:58:38;20.30;;;12.00;;
18443;SDS011;9350;53.176;8.194;2023-04-01T05:01:07;15.93;;;11.48;;
18443;SDS011;9350;53.176;8.194;2023-04-01T05:03:35;16.58;;;10.90;;
18443;SDS011;9350;53.176;8.194;2023-04-01T05:06:03;18.23;;;11.18;;
18443;SDS011;9350;53.176;8.194;2023-04-01T05:08:30;16.80;;;11.20;;
18443;SDS011;9350;53.176;8.194;2023-04-01T05:10:58;20.13;;;11.60;;
18443;SDS011;9350;53.176;8.194;2023-04-01T05:13:25;16.50;;;11.73;;
18443;SDS011;9350;53.176;8.194;2023-04-01T05:15:52;16.08;;;11.48;;
18443;SDS011;9350;53.176;8.194;2023-04-01T05:18:20;15.88;;;11.32;;
18443;SDS011;9350;53.176;8.194;2023-04-01T05:20:47;15.13;;;11.38;;
18443;SDS011;9350;53.176;8.194;2023-04-01T05:23:15;17.75;;;11.23;;
18443;SDS011;9350;53.176;8.194;2023-04-01T05:25:41;17.15;;;11.57;;
18443;SDS011;9350;53.176;8.194;2023-04-01T05:28:08;15.40;;;10.63;;
18443;SDS011;9350;53.176;8.194;2023-04-01T05:30:35;19.02;;;10.95;;
18443;SDS011;9350;53.176;8.194;2023-04-01T05:33:02;16.77;;;11.30;;
18443;SDS011;9350;53.176;8.194;2023-04-01T05:35:30;17.17;;;10.70;;
18443;SDS011;9350;53.176;8.194;2023-04-01T05:37:57;15.43;;;9.95;;
18443;SDS011;9350;53.176;8.194;2023-04-01T05:40:23;17.35;;;10.38;;
18443;SDS011;9350;53.176;8.194;2023-04-01T05:42:50;14.48;;;10.43;;
18443;SDS011;9350;53.176;8.194;2023-04-01T05:45:17;15.82;;;10.13;;
18443;SDS011;9350;53.176;8.194;2023-04-01T05:47:44;15.75;;;9.95;;
18443;SDS011;9350;53.176;8.194;2023-04-01T05:50:10;12.73;;;9.65;;
18443;SDS011;9350;53.176;8.194;2023-04-01T05:52:38;14.10;;;9.15;;
18443;SDS011;9350;53.176;8.194;2023-04-01T05:55:05;12.85;;;9.50;;
18443;SDS011;9350;53.176;8.194;2023-04-01T05:57:33;12.68;;;9.48;;
18443;SDS011;9350;53.176;8.194;2023-04-01T05:59:59;11.95;;;8.77;;
18443;SDS011;9350;53.176;8.194;2023-04-01T06:02:26;12.75;;;8.82;;
18443;SDS011;9350;53.176;8.194;2023-04-01T06:04:54;13.38;;;9.13;;
18443;SDS011;9350;53.176;8.194;2023-04-01T06:07:29;13.57;;;9.20;;
18443;SDS011;9350;53.176;8.194;2023-04-01T06:09:57;15.50;;;9.23;;
18443;SDS011;9350;53.176;8.194;2023-04-01T06:12:29;13.30;;;8.90;;
18443;SDS011;9350;53.176;8.194;2023-04-01T06:15:09;11.85;;;8.85;;
18443;SDS011;9350;53.176;8.194;2023-04-01T06:17:46;12.95;;;9.13;;
18443;SDS011;9350;53.176;8.194;2023-04-01T06:20:24;10.02;;;8.10;;
18443;SDS011;9350;53.176;8.194;2023-04-01T06:23:02;11.73;;;9.10;;
18443;SDS011;9350;53.176;8.194;2023-04-01T06:25:48;13.18;;;8.55;;
18443;SDS011;9350;53.176;8.194;2023-04-01T06:31:42;11.68;;;7.30;;
18443;SDS011;9350;53.176;8.194;2023-04-01T06:37:23;10.68;;;8.02;;
18443;SDS011;9350;53.176;8.194;2023-04-01T06:40:12;11.00;;;8.02;;
18443;SDS011;9350;53.176;8.194;2023-04-01T06:43:02;11.25;;;7.97;;
18443;SDS011;9350;53.176;8.194;2023-04-01T06:45:38;11.82;;;8.63;;
18443;SDS011;9350;53.176;8.194;2023-04-01T06:48:22;9.65;;;7.60;;
18443;SDS011;9350;53.176;8.194;2023-04-01T06:51:06;11.07;;;7.95;;
18443;SDS011;9350;53.176;8.194;2023-04-01T06:53:41;12.85;;;8.45;;
18443;SDS011;9350;53.176;8.194;2023-04-01T06:56:15;9.60;;;7.57;;
18443;SDS011;9350;53.176;8.194;2023-04-01T06:58:46;9.65;;;7.32;;
18443;SDS011;9350;53.176;8.194;2023-04-01T07:01:16;9.80;;;7.13;;
18443;SDS011;9350;53.176;8.194;2023-04-01T07:03:49;11.75;;;7.43;;
18443;SDS011;9350;53.176;8.194;2023-04-01T07:06:23;9.70;;;7.15;;
18443;SDS011;9350;53.176;8.194;2023-04-01T07:08:54;8.77;;;7.25;;
18443;SDS011;9350;53.176;8.194;2023-04-01T07:11:26;12.18;;;7.68;;
18443;SDS011;9350;53.176;8.194;2023-04-01T07:13:57;8.95;;;6.78;;
18443;SDS011;9350;53.176;8.194;2023-04-01T07:16:28;9.23;;;7.10;;
18443;SDS011;9350;53.176;8.194;2023-04-01T07:19:00;7.68;;;6.82;;
18443;SDS011;9350;53.176;8.194;2023-04-01T07:21:30;8.52;;;6.38;;
18443;SDS011;9350;53.176;8.194;2023-04-01T07:24:03;7.00;;;6.10;;
18443;SDS011;9350;53.176;8.194;2023-04-01T07:26:33;6.95;;;6.00;;
18443;SDS011;9350;53.176;8.194;2023-04-01T07:29:01;7.13;;;6.15;;
18443;SDS011;9350;53.176;8.194;2023-04-01T07:31:36;8.32;;;5.78;;
18443;SDS011;9350;53.176;8.194;2023-04-01T07:34:17;6.07;;;5.47;;
18443;SDS011;9350;53.176;8.194;2023-04-01T07:36:48;5.80;;;5.20;;
18443;SDS011;9350;53.176;8.194;2023-04-01T07:39:26;9.27;;;5.97;;
18443;SDS011;9350;53.176;8.194;2023-04-01T07:42:00;9.23;;;5.95;;
18443;SDS011;9350;53.176;8.194;2023-04-01T07:44:37;8.80;;;6.10;;
18443;SDS011;9350;53.176;8.194;2023-04-01T07:47:18;7.10;;;6.40;;
18443;SDS011;9350;53.176;8.194;2023-04-01T07:49:58;8.73;;;6.00;;
18443;SDS011;9350;53.176;8.194;2023-04-01T07:52:34;6.50;;;5.75;;
18443;SDS011;9350;53.176;8.194;2023-04-01T07:55:05;6.38;;;5.78;;
18443;SDS011;9350;53.176;8.194;2023-04-01T07:57:39;7.28;;;5.72;;
18443;SDS011;9350;53.176;8.194;2023-04-01T08:00:17;6.90;;;6.20;;
18443;SDS011;9350;53.176;8.194;2023-04-01T08:02:51;7.55;;;6.00;;
18443;SDS011;9350;53.176;8.194;2023-04-01T08:05:33;7.97;;;5.63;;
18443;SDS011;9350;53.176;8.194;2023-04-01T08:08:06;5.75;;;5.25;;
18443;SDS011;9350;53.176;8.194;2023-04-01T08:10:43;6.30;;;5.22;;
18443;SDS011;9350;53.176;8.194;2023-04-01T08:13:17;6.40;;;5.75;;
18443;SDS011;9350;53.176;8.194;2023-04-01T08:15:56;6.03;;;5.40;;
18443;SDS011;9350;53.176;8.194;2023-04-01T08:18:32;5.68;;;5.18;;
18443;SDS011;9350;53.176;8.194;2023-04-01T08:21:05;5.57;;;5.13;;
18443;SDS011;9350;53.176;8.194;2023-04-01T08:23:38;5.40;;;4.88;;
18443;SDS011;9350;53.176;8.194;2023-04-01T08:26:10;5.70;;;5.10;;
18443;SDS011;9350;53.176;8.194;2023-04-01T08:28:53;5.57;;;5.03;;
18443;SDS011;9350;53.176;8.194;2023-04-01T08:31:30;7.43;;;4.80;;
18443;SDS011;9350;53.176;8.194;2023-04-01T08:34:01;5.05;;;4.65;;
18443;SDS011;9350;53.176;8.194;2023-04-01T08:36:31;5.78;;;4.60;;
18443;SDS011;9350;53.176;8.194;2023-04-01T08:39:02;4.95;;;4.55;;
18443;SDS011;9350;53.176;8.194;2023-04-01T08:44:32;4.90;;;4.40;;
18443;SDS011;9350;53.176;8.194;2023-04-01T08:47:21;5.22;;;4.68;;
18443;SDS011;9350;53.176;8.194;2023-04-01T08:50:19;4.47;;;3.72;;
18443;SDS011;9350;53.176;8.194;2023-04-01T08:53:00;4.53;;;4.13;;
18443;SDS011;9350;53.176;8.194;2023-04-01T08:55:47;5.18;;;4.20;;
18443;SDS011;9350;53.176;8.194;2023-04-01T08:58:32;3.90;;;3.60;;
18443;SDS011;9350;53.176;8.194;2023-04-01T09:01:14;3.97;;;3.63;;
18443;SDS011;9350;53.176;8.194;2023-04-01T09:03:54;3.30;;;3.00;;
18443;SDS011;9350;53.176;8.194;2023-04-01T09:06:32;3.83;;;3.42;;
18443;SDS011;9350;53.176;8.194;2023-04-01T09:09:09;3.47;;;3.25;;
18443;SDS011;9350;53.176;8.194;2023-04-01T09:11:59;3.45;;;3.15;;
18443;SDS011;9350;53.176;8.194;2023-04-01T09:14:57;2.95;;;2.75;;
18443;SDS011;9350;53.176;8.194;2023-04-01T09:20:47;3.60;;;3.22;;
18443;SDS011;9350;53.176;8.194;2023-04-01T09:23:43;4.63;;;3.40;;
18443;SDS011;9350;53.176;8.194;2023-04-01T09:26:30;4.72;;;3.75;;
18443;SDS011;9350;53.176;8.194;2023-04-01T09:29:13;4.05;;;3.70;;
18443;SDS011;9350;53.176;8.194;2023-04-01T09:31:57;2.50;;;2.30;;
18443;SDS011;9350;53.176;8.194;2023-04-01T09:37:25;2.45;;;2.30;;
18443;SDS011;9350;53.176;8.194;2023-04-01T09:40:09;2.65;;;2.45;;
18443;SDS011;9350;53.176;8.194;2023-04-01T09:42:43;2.00;;;1.90;;
18443;SDS011;9350;53.176;8.194;2023-04-01T09:45:18;1.73;;;1.67;;
18443;SDS011;9350;53.176;8.194;2023-04-01T09:47:58;1.10;;;1.10;;
18443;SDS011;9350;53.176;8.194;2023-04-01T09:50:33;2.45;;;0.98;;
18443;SDS011;9350;53.176;8.194;2023-04-01T09:53:10;0.90;;;0.90;;
18443;SDS011;9350;53.176;8.194;2023-04-01T09:56:00;0.90;;;0.90;;
18443;SDS011;9350;53.176;8.194;2023-04-01T09:59:02;0.90;;;0.90;;
18443;SDS011;9350;53.176;8.194;2023-04-01T10:01:57;0.95;;;0.95;;
18443;SDS011;9350;53.176;8.194;2023-04-01T10:05:01;0.95;;;0.95;;
18443;SDS011;9350;53.176;8.194;2023-04-01T10:10:57;1.10;;;1.10;;
18443;SDS011;9350;53.176;8.194;2023-04-01T10:17:00;1.50;;;1.50;;
18443;SDS011;9350;53.176;8.194;2023-04-01T10:19:56;1.80;;;1.80;;
18443;SDS011;9350;53.176;8.194;2023-04-01T10:25:49;1.58;;;1.58;;
18443;SDS011;9350;53.176;8.194;2023-04-01T10:28:52;1.90;;;1.90;;
18443;SDS011;9350;53.176;8.194;2023-04-01T10:44:05;3.20;;;3.03;;
18443;SDS011;9350;53.176;8.194;2023-04-01T10:47:10;3.30;;;3.10;;
18443;SDS011;9350;53.176;8.194;2023-04-01T10:50:22;3.50;;;3.30;;
18443;SDS011;9350;53.176;8.194;2023-04-01T10:56:05;3.75;;;3.55;;
18443;SDS011;9350;53.176;8.194;2023-04-01T10:58:56;4.55;;;4.25;;
18443;SDS011;9350;53.176;8.194;2023-04-01T11:01:53;4.50;;;4.20;;
18443;SDS011;9350;53.176;8.194;2023-04-01T11:04:54;4.32;;;4.00;;
18443;SDS011;9350;53.176;8.194;2023-04-01T11:07:52;4.50;;;4.20;;
18443;SDS011;9350;53.176;8.194;2023-04-01T11:10:45;4.38;;;4.07;;
18443;SDS011;9350;53.176;8.194;2023-04-01T11:13:59;4.18;;;3.97;;
18443;SDS011;9350;53.176;8.194;2023-04-01T11:16:47;4.57;;;4.28;;
18443;SDS011;9350;53.176;8.194;2023-04-01T11:19:41;4.50;;;4.20;;
18443;SDS011;9350;53.176;8.194;2023-04-01T11:22:36;5.15;;;4.75;;
18443;SDS011;9350;53.176;8.194;2023-04-01T11:28:35;4.82;;;4.53;;
18443;SDS011;9350;53.176;8.194;2023-04-01T11:31:28;4.88;;;4.57;;
18443;SDS011;9350;53.176;8.194;2023-04-01T11:34:05;4.57;;;4.18;;
18443;SDS011;9350;53.176;8.194;2023-04-01T11:36:45;4.15;;;3.95;;
18443;SDS011;9350;53.176;8.194;2023-04-01T11:39:23;4.45;;;4.15;;
18443;SDS011;9350;53.176;8.194;2023-04-01T11:42:01;3.72;;;3.40;;
18443;SDS011;9350;53.176;8.194;2023-04-01T11:44:38;3.60;;;3.40;;
18443;SDS011;9350;53.176;8.194;2023-04-01T11:47:14;4.15;;;3.85;;
18443;SDS011;9350;53.176;8.194;2023-04-01T11:49:59;4.00;;;3.80;;
18443;SDS011;9350;53.176;8.194;2023-04-01T11:52:43;4.60;;;4.20;;
18443;SDS011;9350;53.176;8.194;2023-04-01T11:55:24;6.25;;;5.22;;
18443;SDS011;9350;53.176;8.194;2023-04-01T11:58:03;6.07;;;5.47;;
18443;SDS011;9350;53.176;8.194;2023-04-01T12:00:55;5.28;;;4.88;;
18443;SDS011;9350;53.176;8.194;2023-04-01T12:03:38;5.57;;;5.20;;
18443;SDS011;9350;53.176;8.194;2023-04-01T12:06:25;5.45;;;5.00;;
18443;SDS011;9350;53.176;8.194;2023-04-01T12:09:04;5.43;;;4.90;;
18443;SDS011;9350;53.176;8.194;2023-04-01T12:11:41;4.75;;;4.45;;
18443;SDS011;9350;53.176;8.194;2023-04-01T12:14:19;4.30;;;4.10;;
18443;SDS011;9350;53.176;8.194;2023-04-01T12:16:55;3.85;;;3.65;;
18443;SDS011;9350;53.176;8.194;2023-04-01T12:19:32;3.90;;;3.70;;
18443;SDS011;9350;53.176;8.194;2023-04-01T12:24:56;4.30;;;3.90;;
18443;SDS011;9350;53.176;8.194;2023-04-01T12:27:35;4.03;;;3.83;;
18443;SDS011;9350;53.176;8.194;2023-04-01T12:36:23;4.03;;;3.83;;
18443;SDS011;9350;53.176;8.194;2023-04-01T12:39:13;3.75;;;3.55;;
18443;SDS011;9350;53.176;8.194;2023-04-01T12:42:05;3.42;;;3.25;;
18443;SDS011;9350;53.176;8.194;2023-04-01T12:44:47;3.08;;;2.88;;
18443;SDS011;9350;53.176;8.194;2023-04-01T12:47:31;2.90;;;2.80;;
18443;SDS011;9350;53.176;8.194;2023-04-01T12:50:33;3.78;;;3.58;;
18443;SDS011;9350;53.176;8.194;2023-04-01T12:53:20;3.47;;;3.38;;
18443;SDS011;9350;53.176;8.194;2023-04-01T12:55:59;3.00;;;2.90;;
18443;SDS011;9350;53.176;8.194;2023-04-01T13:04:30;3.13;;;2.92;;
18443;SDS011;9350;53.176;8.194;2023-04-01T13:10:24;3.75;;;3.55;;
18443;SDS011;9350;53.176;8.194;2023-04-01T13:16:07;3.53;;;3.40;;
18443;SDS011;9350;53.176;8.194;2023-04-01T13:18:44;3.03;;;2.92;;
18443;SDS011;9350;53.176;8.194;2023-04-01T13:21:25;2.97;;;2.85;;
18443;SDS011;9350;53.176;8.194;2023-04-01T13:24:06;3.78;;;3.47;;
18443;SDS011;9350;53.176;8.194;2023-04-01T13:26:47;4.32;;;4.03;;
18443;SDS011;9350;53.176;8.194;2023-04-01T13:29:23;4.28;;;3.13;;
18443;SDS011;9350;53.176;8.194;2023-04-01T13:32:00;4.60;;;4.20;;
18443;SDS011;9350;53.176;8.194;2023-04-01T13:34:45;3.97;;;3.67;;
18443;SDS011;9350;53.176;8.194;2023-04-01T13:37:21;4.15;;;3.85;;
18443;SDS011;9350;53.176;8.194;2023-04-01T13:39:57;2.90;;;2.80;;
18443;SDS011;9350;53.176;8.194;2023-04-01T13:42:42;2.58;;;2.47;;
18443;SDS011;9350;53.176;8.194;2023-04-01T13:45:15;1.90;;;1.90;;
18443;SDS011;9350;53.176;8.194;2023-04-01T13:51:00;2.20;;;2.00;;
18443;SDS011;9350;53.176;8.194;2023-04-01T13:53:46;1.60;;;1.60;;
18443;SDS011;9350;53.176;8.194;2023-04-01T13:56:33;1.65;;;1.65;;
18443;SDS011;9350;53.176;8.194;2023-04-01T14:02:21;2.17;;;2.08;;
18443;SDS011;9350;53.176;8.194;2023-04-01T14:05:07;1.98;;;1.98;;
18443;SDS011;9350;53.176;8.194;2023-04-01T14:07:45;2.72;;;2.53;;
18443;SDS011;9350;53.176;8.194;2023-04-01T14:10:23;2.80;;;2.65;;
18443;SDS011;9350;53.176;8.194;2023-04-01T14:12:58;3.08;;;2.85;;
18443;SDS011;9350;53.176;8.194;2023-04-01T14:15:41;2.30;;;2.20;;
18443;SDS011;9350;53.176;8.194;2023-04-01T14:18:21;2.55;;;2.45;;
18443;SDS011;9350;53.176;8.194;2023-04-01T14:21:03;4.15;;;2.67;;
18443;SDS011;9350;53.176;8.194;2023-04-01T14:26:35;1.80;;;1.80;;
18443;SDS011;9350;53.176;8.194;2023-04-01T14:29:27;1.80;;;1.80;;
18443;SDS011;9350;53.176;8.194;2023-04-01T14:32:06;2.30;;;2.20;;
18443;SDS011;9350;53.176;8.194;2023-04-01T14:34:43;2.45;;;2.25;;
18443;SDS011;9350;53.176;8.194;2023-04-01T14:37:23;2.38;;;2.20;;
18443;SDS011;9350;53.176;8.194;2023-04-01T14:40:19;2.95;;;2.70;;
18443;SDS011;9350;53.176;8.194;2023-04-01T14:43:10;47.00;;;19.30;;
18443;SDS011;9350;53.176;8.194;2023-04-01T14:48:57;3.78;;;3.22;;
18443;SDS011;9350;53.176;8.194;2023-04-01T14:51:30;3.10;;;2.90;;
18443;SDS011;9350;53.176;8.194;2023-04-01T14:54:00;2.50;;;2.40;;
18443;SDS011;9350;53.176;8.194;2023-04-01T14:56:38;2.97;;;2.78;;
18443;SDS011;9350;53.176;8.194;2023-04-01T14:59:08;2.55;;;2.42;;
18443;SDS011;9350;53.176;8.194;2023-04-01T15:01:37;3.03;;;2.80;;
18443;SDS011;9350;53.176;8.194;2023-04-01T15:04:24;2.60;;;2.50;;
18443;SDS011;9350;53.176;8.194;2023-04-01T15:07:20;3.08;;;2.88;;
18443;SDS011;9350;53.176;8.194;2023-04-01T15:10:02;2.75;;;2.65;;
18443;SDS011;9350;53.176;8.194;2023-04-01T15:12:40;3.25;;;2.72;;
18443;SDS011;9350;53.176;8.194;2023-04-01T15:15:21;3.08;;;2.88;;
18443;SDS011;9350;53.176;8.194;2023-04-01T15:18:04;4.57;;;2.90;;
18443;SDS011;9350;53.176;8.194;2023-04-01T15:20:47;3.40;;;3.13;;
18443;SDS011;9350;53.176;8.194;2023-04-01T15:23:31;3.97;;;3.22;;
18443;SDS011;9350;53.176;8.194;2023-04-01T15:26:17;3.92;;;3.63;;
18443;SDS011;9350;53.176;8.194;2023-04-01T15:29:02;4.30;;;4.00;;
18443;SDS011;9350;53.176;8.194;2023-04-01T15:31:45;4.30;;;3.85;;
18443;SDS011;9350;53.176;8.194;2023-04-01T15:34:20;4.38;;;3.97;;
18443;SDS011;9350;53.176;8.194;2023-04-01T15:36:56;3.95;;;3.50;;
18443;SDS011;9350;53.176;8.194;2023-04-01T15:39:34;3.58;;;3.28;;
18443;SDS011;9350;53.176;8.194;2023-04-01T15:42:16;3.90;;;3.50;;
18443;SDS011;9350;53.176;8.194;2023-04-01T15:45:00;3.97;;;3.53;;
18443;SDS011;9350;53.176;8.194;2023-04-01T15:47:38;3.20;;;3.00;;
18443;SDS011;9350;53.176;8.194;2023-04-01T15:50:21;4.00;;;3.22;;
18443;SDS011;9350;53.176;8.194;2023-04-01T15:53:10;4.00;;;3.25;;
18443;SDS011;9350;53.176;8.194;2023-04-01T15:55:47;3.25;;;3.00;;
18443;SDS011;9350;53.176;8.194;2023-04-01T15:58:22;6.32;;;3.38;;
18443;SDS011;9350;53.176;8.194;2023-04-01T16:01:04;5.25;;;3.45;;
18443;SDS011;9350;53.176;8.194;2023-04-01T16:03:42;3.88;;;3.38;;
18443;SDS011;9350;53.176;8.194;2023-04-01T16:06:24;3.80;;;3.50;;
18443;SDS011;9350;53.176;8.194;2023-04-01T16:09:20;4.07;;;3.30;;
18443;SDS011;9350;53.176;8.194;2023-04-01T16:12:03;4.07;;;3.53;;
18443;SDS011;9350;53.176;8.194;2023-04-01T16:14:39;4.22;;;3.63;;
18443;SDS011;9350;53.176;8.194;2023-04-01T16:17:15;4.43;;;4.03;;
18443;SDS011;9350;53.176;8.194;2023-04-01T16:19:52;4.45;;;4.05;;
18443;SDS011;9350;53.176;8.194;2023-04-01T16:22:26;4.63;;;4.22;;
18443;SDS011;9350;53.176;8.194;2023-04-01T16:25:01;4.57;;;3.80;;
18443;SDS011;9350;53.176;8.194;2023-04-01T16:27:46;6.18;;;4.13;;
18443;SDS011;9350;53.176;8.194;2023-04-01T16:30:24;4.45;;;4.05;;
18443;SDS011;9350;53.176;8.194;2023-04-01T16:33:01;4.57;;;4.18;;
18443;SDS011;9350;53.176;8.194;2023-04-01T16:35:35;5.18;;;3.90;;
18443;SDS011;9350;53.176;8.194;2023-04-01T16:38:09;5.15;;;4.03;;
18443;SDS011;9350;53.176;8.194;2023-04-01T16:40:44;4.70;;;4.28;;
18443;SDS011;9350;53.176;8.194;2023-04-01T16:43:21;4.38;;;3.97;;
18443;SDS011;9350;53.176;8.194;2023-04-01T16:45:56;5.47;;;4.43;;
18443;SDS011;9350;53.176;8.194;2023-04-01T16:48:45;4.47;;;4.07;;
18443;SDS011;9350;53.176;8.194;2023-04-01T16:51:21;4.38;;;3.97;;
18443;SDS011;9350;53.176;8.194;2023-04-01T16:53:50;3.80;;;3.50;;
18443;SDS011;9350;53.176;8.194;2023-04-01T16:56:30;3.90;;;3.45;;
18443;SDS011;9350;53.176;8.194;2023-04-01T16:59:13;4.47;;;3.92;;
18443;SDS011;9350;53.176;8.194;2023-04-01T17:01:47;3.72;;;3.35;;